createdAt,value
2022-12-22T00:01:17.306Z,2.72
2022-12-22T00:04:37.175Z,2.75
2022-12-22T00:07:57.034Z,1.65
2022-12-22T00:11:18.874Z,2.45
2022-12-22T00:14:38.807Z,2.20
2022-12-22T00:17:59.264Z,2.67
2022-12-22T00:21:19.799Z,4.13
2022-12-22T00:24:39.615Z,1.95
2022-12-22T00:27:59.963Z,2.17
2022-12-22T00:31:20.572Z,1.48
2022-12-22T00:34:41.300Z,1.77
2022-12-22T00:38:01.542Z,1.67
2022-12-22T00:41:22.451Z,3.13
2022-12-22T00:44:42.539Z,2.17
2022-12-22T00:48:03.246Z,2.10
2022-12-22T00:51:23.554Z,1.80
2022-12-22T00:54:44.004Z,2.10
2022-12-22T00:58:04.395Z,2.28
2022-12-22T01:01:24.478Z,2.45
2022-12-22T01:04:44.681Z,2.20
2022-12-22T01:08:05.043Z,1.70
2022-12-22T01:11:26.040Z,1.02
2022-12-22T01:14:46.719Z,2.30
2022-12-22T01:18:06.615Z,2.45
2022-12-22T01:21:27.071Z,1.27
2022-12-22T01:24:48.961Z,1.63
2022-12-22T01:28:09.049Z,2.90
2022-12-22T01:31:37.505Z,2.28
2022-12-22T01:34:58.178Z,2.00
2022-12-22T01:38:18.129Z,1.40
2022-12-22T01:41:40.093Z,2.10
2022-12-22T01:45:00.460Z,3.60
2022-12-22T01:48:20.716Z,1.38
2022-12-22T01:51:47.355Z,1.55
2022-12-22T01:55:08.733Z,1.65
2022-12-22T01:58:46.898Z,2.05
2022-12-22T02:02:07.469Z,2.03
2022-12-22T02:05:30.386Z,1.70
2022-12-22T02:09:00.444Z,3.28
2022-12-22T02:12:29.833Z,1.52
2022-12-22T02:16:00.862Z,1.55
2022-12-22T02:19:26.969Z,1.40
2022-12-22T02:23:00.766Z,1.75
2022-12-22T02:26:42.331Z,1.60
2022-12-22T02:30:09.693Z,1.75
2022-12-22T02:36:50.439Z,1.35
2022-12-22T02:40:26.757Z,1.10
2022-12-22T02:44:01.408Z,1.42
2022-12-22T02:47:39.326Z,1.42
2022-12-22T02:51:10.858Z,1.35
2022-12-22T02:54:33.265Z,1.38
2022-12-22T02:57:53.139Z,1.17
2022-12-22T03:01:13.166Z,1.80
2022-12-22T03:04:33.050Z,0.82
2022-12-22T03:07:52.936Z,1.95
2022-12-22T03:11:12.822Z,2.03
2022-12-22T03:14:32.846Z,1.67
2022-12-22T03:17:52.833Z,1.60
2022-12-22T03:21:13.613Z,1.48
2022-12-22T03:24:33.458Z,1.75
2022-12-22T03:27:34.921Z,1.33
2022-12-22T03:30:36.556Z,0.98
2022-12-22T03:33:38.130Z,1.42
2022-12-22T03:36:39.663Z,1.10
2022-12-22T03:39:41.113Z,0.88
2022-12-22T03:43:01.258Z,1.05
2022-12-22T03:46:22.056Z,0.60
2022-12-22T03:49:26.031Z,2.40
2022-12-22T03:52:27.544Z,1.25
2022-12-22T03:55:29.086Z,1.58
2022-12-22T03:58:30.604Z,1.10
2022-12-22T04:01:33.570Z,2.10
2022-12-22T04:04:35.341Z,1.33
2022-12-22T04:07:36.880Z,0.60
2022-12-22T04:10:56.613Z,1.10
2022-12-22T04:13:58.565Z,0.63
2022-12-22T04:17:00.237Z,1.88
2022-12-22T04:20:01.769Z,1.02
2022-12-22T04:23:04.304Z,1.20
2022-12-22T04:26:05.800Z,1.13
2022-12-22T04:29:07.374Z,1.00
2022-12-22T04:32:08.913Z,0.85
2022-12-22T04:35:11.152Z,1.25
2022-12-22T04:38:12.717Z,1.42
2022-12-22T04:41:14.413Z,0.90
2022-12-22T04:44:16.007Z,0.80
2022-12-22T04:47:17.724Z,2.55
2022-12-22T04:50:19.229Z,1.35
2022-12-22T04:53:21.627Z,0.68
2022-12-22T04:56:23.172Z,0.98
2022-12-22T04:59:24.749Z,1.33
2022-12-22T05:02:26.336Z,0.93
2022-12-22T05:05:27.883Z,0.63
2022-12-22T05:08:29.426Z,1.00
2022-12-22T05:11:30.922Z,1.67
2022-12-22T05:14:32.452Z,1.15
2022-12-22T05:17:33.977Z,1.02
2022-12-22T05:20:35.907Z,1.50
2022-12-22T05:23:37.467Z,1.00
2022-12-22T05:26:39.013Z,1.25
2022-12-22T05:29:41.132Z,1.45
2022-12-22T05:32:42.648Z,0.68
2022-12-22T05:35:44.130Z,0.95
2022-12-22T05:38:46.001Z,0.90
2022-12-22T05:41:47.556Z,0.60
2022-12-22T05:44:49.015Z,0.88
2022-12-22T05:47:52.152Z,0.65
2022-12-22T05:50:53.659Z,1.05
2022-12-22T05:53:55.182Z,1.23
2022-12-22T05:56:56.680Z,1.20
2022-12-22T05:59:58.202Z,2.33
2022-12-22T06:02:59.810Z,1.05
2022-12-22T06:06:01.538Z,0.77
2022-12-22T06:09:03.115Z,1.52
2022-12-22T06:12:05.128Z,1.17
2022-12-22T06:15:07.569Z,0.52
2022-12-22T06:18:09.161Z,1.10
2022-12-22T06:21:10.640Z,0.88
2022-12-22T06:24:12.105Z,0.60
2022-12-22T06:27:13.708Z,1.05
2022-12-22T06:30:16.587Z,1.40
2022-12-22T06:33:18.099Z,1.40
2022-12-22T06:36:19.574Z,1.10
2022-12-22T06:39:21.791Z,1.23
2022-12-22T06:42:42.005Z,2.05
2022-12-22T06:45:43.692Z,1.15
2022-12-22T06:48:45.200Z,1.50
2022-12-22T06:51:47.251Z,0.90
2022-12-22T06:54:48.750Z,1.75
2022-12-22T06:57:50.280Z,1.10
2022-12-22T07:00:51.785Z,2.30
2022-12-22T07:03:53.348Z,1.98
2022-12-22T07:06:54.973Z,2.75
2022-12-22T07:09:56.599Z,1.23
2022-12-22T07:13:18.051Z,0.90
2022-12-22T07:16:19.668Z,1.17
2022-12-22T07:19:21.423Z,1.40
2022-12-22T07:22:27.741Z,1.20
2022-12-22T07:25:31.653Z,1.38
2022-12-22T07:28:35.244Z,1.75
2022-12-22T07:31:36.829Z,1.27
2022-12-22T07:34:38.337Z,1.52
2022-12-22T07:37:39.867Z,1.65
2022-12-22T07:40:43.701Z,2.28
2022-12-22T07:43:47.292Z,0.93
2022-12-22T07:46:48.901Z,1.50
2022-12-22T07:50:09.064Z,1.10
2022-12-22T07:53:10.550Z,1.40
2022-12-22T07:56:12.088Z,1.33
2022-12-22T07:59:15.579Z,0.98
2022-12-22T08:02:17.293Z,1.13
2022-12-22T08:05:19.520Z,1.00
2022-12-22T08:08:21.125Z,1.45
2022-12-22T08:11:22.644Z,2.70
2022-12-22T08:14:24.137Z,1.15
2022-12-22T08:17:29.427Z,2.80
2022-12-22T08:20:31.047Z,2.08
2022-12-22T08:23:34.007Z,1.88
2022-12-22T08:26:40.938Z,1.38
2022-12-22T08:29:46.679Z,0.90
2022-12-22T08:32:51.036Z,1.27
2022-12-22T08:35:52.825Z,0.85
2022-12-22T08:38:55.933Z,2.60
2022-12-22T08:41:58.542Z,1.35
2022-12-22T08:45:00.027Z,0.98
2022-12-22T08:48:01.675Z,4.18
2022-12-22T08:51:03.225Z,5.13
2022-12-22T08:54:06.240Z,3.20
2022-12-22T08:57:09.121Z,2.28
2022-12-22T09:00:12.926Z,2.30
2022-12-22T09:03:14.893Z,5.00
2022-12-22T09:06:17.748Z,3.03
2022-12-22T09:09:20.629Z,3.15
2022-12-22T09:12:22.116Z,2.25
2022-12-22T09:15:23.649Z,1.92
2022-12-22T09:18:25.155Z,3.13
2022-12-22T09:21:26.923Z,1.65
2022-12-22T09:24:28.439Z,1.52
2022-12-22T09:27:30.584Z,2.20
2022-12-22T09:30:32.833Z,1.58
2022-12-22T09:33:36.232Z,1.85
2022-12-22T09:36:40.773Z,1.40
2022-12-22T09:39:42.489Z,2.55
2022-12-22T09:42:44.049Z,0.95
2022-12-22T09:45:46.063Z,1.58
2022-12-22T09:48:47.993Z,1.25
2022-12-22T09:52:02.439Z,2.47
2022-12-22T09:55:12.965Z,1.35
2022-12-22T09:58:25.919Z,1.30
2022-12-22T10:02:02.077Z,1.27
2022-12-22T10:05:30.807Z,1.52
2022-12-22T10:08:35.238Z,3.88
2022-12-22T10:11:36.742Z,2.08
2022-12-22T10:14:41.682Z,1.33
2022-12-22T10:17:43.270Z,1.65
2022-12-22T10:20:47.385Z,0.98
2022-12-22T10:23:54.480Z,1.85
2022-12-22T10:27:00.526Z,2.47
2022-12-22T10:30:32.672Z,1.27
2022-12-22T10:33:34.857Z,2.20
2022-12-22T10:36:37.708Z,1.45
2022-12-22T10:39:40.568Z,1.80
2022-12-22T10:42:51.897Z,1.27
2022-12-22T10:45:55.553Z,1.33
2022-12-22T10:49:15.127Z,1.40
2022-12-22T10:52:31.025Z,1.20
2022-12-22T10:55:35.971Z,0.68
2022-12-22T10:59:17.224Z,1.70
2022-12-22T11:02:21.844Z,1.05
2022-12-22T11:05:24.128Z,0.93
2022-12-22T11:08:26.289Z,1.13
2022-12-22T11:11:40.955Z,1.38
2022-12-22T11:14:45.551Z,1.33
2022-12-22T11:18:02.357Z,1.63
2022-12-22T11:21:25.152Z,0.75
2022-12-22T11:24:44.752Z,0.63
2022-12-22T11:28:23.827Z,1.10
2022-12-22T11:31:40.105Z,0.88
2022-12-22T11:35:03.321Z,1.65
2022-12-22T11:38:45.462Z,1.05
2022-12-22T11:42:09.119Z,1.45
2022-12-22T11:45:16.605Z,1.00
2022-12-22T11:48:33.690Z,1.05
2022-12-22T11:51:56.575Z,1.23
2022-12-22T11:55:23.122Z,1.02
2022-12-22T11:58:49.547Z,1.20
2022-12-22T12:02:21.092Z,2.27
2022-12-22T12:05:47.645Z,1.98
2022-12-22T12:09:14.331Z,2.95
2022-12-22T12:12:45.842Z,1.80
2022-12-22T12:15:53.933Z,1.88
2022-12-22T12:19:27.137Z,1.35
2022-12-22T12:22:57.610Z,0.90
2022-12-22T12:26:11.655Z,2.30
2022-12-22T12:29:16.052Z,3.65
2022-12-22T12:32:41.108Z,5.50
2022-12-22T12:36:12.766Z,6.00
2022-12-22T12:39:33.462Z,7.35
2022-12-22T12:42:39.393Z,11.35
2022-12-22T12:45:42.276Z,11.85
2022-12-22T12:48:43.801Z,12.13
2022-12-22T12:51:46.353Z,10.68
2022-12-22T12:54:48.074Z,13.23
2022-12-22T12:57:50.333Z,13.50
2022-12-22T13:00:57.110Z,10.25
2022-12-22T13:04:03.491Z,13.35
2022-12-22T13:07:05.846Z,10.27
2022-12-22T13:10:18.142Z,9.85
2022-12-22T13:13:22.650Z,10.32
2022-12-22T13:16:27.070Z,10.15
2022-12-22T13:19:30.491Z,9.35
2022-12-22T13:22:33.191Z,8.90
2022-12-22T13:25:54.486Z,8.10
2022-12-22T13:29:02.908Z,8.80
2022-12-22T13:32:19.065Z,8.15
2022-12-22T13:35:32.660Z,7.97
2022-12-22T13:38:37.742Z,8.45
2022-12-22T13:41:41.271Z,8.93
2022-12-22T13:44:43.015Z,7.93
2022-12-22T13:47:46.479Z,7.85
2022-12-22T13:50:52.634Z,8.15
2022-12-22T13:54:11.039Z,7.40
2022-12-22T13:57:18.716Z,8.15
2022-12-22T14:03:59.429Z,8.32
2022-12-22T14:06:48.149Z,7.63
2022-12-22T14:09:55.343Z,7.28
2022-12-22T14:12:57.196Z,7.68
2022-12-22T14:16:01.731Z,7.18
2022-12-22T14:19:03.388Z,6.70
2022-12-22T14:22:10.878Z,7.82
2022-12-22T14:25:18.555Z,8.20
2022-12-22T14:28:25.794Z,7.30
2022-12-22T14:31:27.328Z,7.03
2022-12-22T14:34:31.152Z,5.82
2022-12-22T14:37:33.395Z,7.03
2022-12-22T14:40:34.998Z,5.93
2022-12-22T14:43:36.493Z,6.38
2022-12-22T14:46:39.256Z,5.47
2022-12-22T14:49:57.807Z,5.93
2022-12-22T14:53:01.099Z,5.65
2022-12-22T14:56:02.612Z,5.85
2022-12-22T14:59:10.326Z,4.88
2022-12-22T15:02:36.670Z,6.63
2022-12-22T15:05:42.094Z,5.45
2022-12-22T15:08:43.850Z,5.93
2022-12-22T15:11:52.713Z,5.57
2022-12-22T15:14:54.225Z,5.35
2022-12-22T15:17:55.722Z,5.32
2022-12-22T15:20:57.861Z,5.85
2022-12-22T15:23:59.332Z,4.82
2022-12-22T15:27:00.932Z,5.30
2022-12-22T15:30:02.388Z,8.13
2022-12-22T15:33:04.363Z,5.32
2022-12-22T15:36:09.224Z,5.15
2022-12-22T15:39:15.682Z,7.55
2022-12-22T15:42:17.154Z,4.78
2022-12-22T15:45:20.889Z,6.65
2022-12-22T15:48:28.232Z,5.63
2022-12-22T15:51:31.841Z,4.28
2022-12-22T15:54:33.553Z,4.82
2022-12-22T15:57:35.026Z,5.45
2022-12-22T16:00:36.567Z,4.57
2022-12-22T16:03:38.434Z,5.38
2022-12-22T16:06:40.111Z,5.18
2022-12-22T16:09:43.972Z,5.53
2022-12-22T16:12:53.972Z,4.30
2022-12-22T16:15:56.844Z,4.68
2022-12-22T16:18:58.302Z,4.00
2022-12-22T16:21:59.786Z,3.78
2022-12-22T16:25:03.036Z,4.65
2022-12-22T16:28:06.055Z,3.60
2022-12-22T16:31:16.657Z,5.78
2022-12-22T16:34:18.270Z,6.50
2022-12-22T16:37:19.758Z,4.78
2022-12-22T16:40:21.242Z,3.63
2022-12-22T16:46:58.330Z,4.07
2022-12-22T16:50:00.357Z,4.28
2022-12-22T16:53:04.986Z,4.88
2022-12-22T16:56:11.063Z,5.35
2022-12-22T16:59:13.970Z,4.88
2022-12-22T17:02:25.789Z,4.93
2022-12-22T17:05:35.294Z,4.53
2022-12-22T17:08:43.855Z,3.70
2022-12-22T17:11:46.442Z,3.65
2022-12-22T17:14:49.009Z,4.75
2022-12-22T17:17:51.072Z,6.13
2022-12-22T17:20:56.132Z,4.90
2022-12-22T17:24:03.789Z,5.55
2022-12-22T17:27:06.794Z,3.60
2022-12-22T17:30:23.372Z,3.83
2022-12-22T17:33:24.845Z,4.90
2022-12-22T17:36:37.000Z,3.70
2022-12-22T17:39:38.776Z,4.70
2022-12-22T17:42:40.251Z,3.10
2022-12-22T17:45:42.971Z,3.40
2022-12-22T17:48:47.970Z,3.63
2022-12-22T17:51:50.051Z,2.85
2022-12-22T17:54:52.905Z,4.82
2022-12-22T17:57:54.692Z,4.63
2022-12-22T18:00:56.211Z,4.22
2022-12-22T18:03:58.392Z,4.45
2022-12-22T18:06:59.964Z,4.20
2022-12-22T18:10:01.692Z,2.92
2022-12-22T18:13:05.713Z,3.75
2022-12-22T18:16:09.723Z,4.85
2022-12-22T18:19:11.224Z,3.80
2022-12-22T18:22:20.957Z,3.25
2022-12-22T18:25:26.358Z,3.15
2022-12-22T18:28:27.855Z,4.05
2022-12-22T18:31:29.408Z,2.70
2022-12-22T18:34:30.958Z,5.22
2022-12-22T18:37:32.423Z,2.78
2022-12-22T18:40:38.934Z,4.25
2022-12-22T18:46:41.949Z,3.58
2022-12-22T18:49:44.899Z,2.53
2022-12-22T18:52:47.093Z,2.65
2022-12-22T18:55:48.679Z,4.00
2022-12-22T18:58:50.266Z,3.40
2022-12-22T19:01:52.364Z,2.42
2022-12-22T19:04:54.691Z,3.47
2022-12-22T19:07:57.184Z,3.35
2022-12-22T19:11:03.286Z,3.30
2022-12-22T19:14:04.852Z,3.35
2022-12-22T19:17:14.180Z,2.70
2022-12-22T19:20:17.981Z,2.85
2022-12-22T19:23:21.726Z,3.22
2022-12-22T19:26:26.011Z,2.53
2022-12-22T19:29:27.837Z,4.38
2022-12-22T19:32:31.266Z,4.70
2022-12-22T19:35:32.988Z,5.60
2022-12-22T19:38:35.809Z,6.88
2022-12-22T19:41:54.642Z,6.47
2022-12-22T19:44:56.161Z,4.45
2022-12-22T19:47:57.803Z,3.30
2022-12-22T19:50:59.322Z,3.35
2022-12-22T19:54:00.803Z,2.83
2022-12-22T19:57:03.665Z,4.63
2022-12-22T20:00:05.694Z,3.72
2022-12-22T20:03:20.610Z,3.10
2022-12-22T20:06:22.535Z,3.78
2022-12-22T20:09:24.083Z,5.85
2022-12-22T20:12:30.464Z,4.25
2022-12-22T20:15:37.047Z,6.57
2022-12-22T20:18:39.739Z,4.82
2022-12-22T20:21:42.002Z,5.13
2022-12-22T20:24:44.591Z,4.00
2022-12-22T20:27:46.134Z,4.20
2022-12-22T20:30:48.204Z,2.20
2022-12-22T20:33:49.926Z,4.90
2022-12-22T20:36:51.476Z,6.30
2022-12-22T20:39:52.976Z,3.92
2022-12-22T20:42:54.567Z,3.35
2022-12-22T20:45:59.641Z,4.90
2022-12-22T20:49:04.380Z,3.38
2022-12-22T20:52:07.353Z,3.15
2022-12-22T20:55:13.737Z,2.72
2022-12-22T20:58:22.803Z,1.80
2022-12-22T21:01:24.641Z,2.55
2022-12-22T21:04:26.225Z,3.65
2022-12-22T21:07:27.762Z,3.85
2022-12-22T21:10:29.371Z,5.30
2022-12-22T21:13:30.834Z,3.63
2022-12-22T21:16:34.056Z,2.35
2022-12-22T21:19:35.693Z,5.80
2022-12-22T21:22:37.135Z,3.13
2022-12-22T21:25:43.177Z,3.70
2022-12-22T21:28:48.259Z,3.33
2022-12-22T21:31:50.191Z,3.65
2022-12-22T21:34:51.780Z,1.95
2022-12-22T21:37:54.773Z,1.95
2022-12-22T21:40:56.246Z,2.85
2022-12-22T21:43:57.696Z,2.08
2022-12-22T21:46:59.653Z,3.47
2022-12-22T21:50:01.167Z,2.80
2022-12-22T21:53:02.760Z,3.08
2022-12-22T21:56:15.959Z,3.10
2022-12-22T21:59:17.794Z,3.35
2022-12-22T22:02:19.413Z,2.80
2022-12-22T22:05:22.461Z,2.97
2022-12-22T22:08:25.053Z,3.08
2022-12-22T22:11:26.961Z,3.15
2022-12-22T22:14:28.504Z,3.35
2022-12-22T22:17:30.340Z,2.95
2022-12-22T22:20:32.682Z,2.88
2022-12-22T22:23:34.567Z,1.95
2022-12-22T22:26:36.086Z,2.13
2022-12-22T22:29:37.547Z,2.03
2022-12-22T22:32:39.022Z,2.17
2022-12-22T22:35:41.346Z,3.45
2022-12-22T22:38:42.805Z,2.83
2022-12-22T22:41:44.271Z,2.28
2022-12-22T22:44:45.740Z,1.23
2022-12-22T22:47:47.280Z,3.05
2022-12-22T22:50:49.623Z,1.92
2022-12-22T22:53:51.103Z,2.03
2022-12-22T22:56:53.605Z,2.80
2022-12-22T22:59:55.091Z,2.50
2022-12-22T23:02:56.645Z,1.95
2022-12-22T23:06:06.653Z,2.10
2022-12-22T23:09:09.194Z,2.17
2022-12-22T23:12:10.689Z,3.13
2022-12-22T23:15:12.201Z,2.47
2022-12-22T23:18:13.664Z,2.83
2022-12-22T23:21:15.190Z,2.08
2022-12-22T23:24:17.250Z,2.00
2022-12-22T23:27:18.766Z,4.95
2022-12-22T23:30:20.265Z,2.88
2022-12-22T23:33:21.749Z,3.45
2022-12-22T23:36:23.275Z,3.25
2022-12-22T23:39:24.847Z,4.82
2022-12-22T23:42:26.342Z,4.25
2022-12-22T23:45:28.972Z,7.65
2022-12-22T23:48:30.418Z,4.55
2022-12-22T23:51:32.058Z,5.18
2022-12-22T23:54:33.567Z,5.93
2022-12-22T23:57:35.131Z,4.43
